sensor_id;sensor_type;location;lat;lon;timestamp;P1;durP1;ratioP1;P2;durP2;ratioP2
7557;SDS011;3820;51.098;13.716;2023-03-23T00:01:25;4.82;;;3.60;;
7557;SDS011;3820;51.098;13.716;2023-03-23T00:03:55;5.55;;;3.53;;
7557;SDS011;3820;51.098;13.716;2023-03-23T00:06:25;8.27;;;3.40;;
7557;SDS011;3820;51.098;13.716;2023-03-23T00:08:52;6.00;;;3.20;;
7557;SDS011;3820;51.098;13.716;2023-03-23T00:11:22;4.23;;;2.87;;
7557;SDS011;3820;51.098;13.716;2023-03-23T00:13:51;3.80;;;2.80;;
7557;SDS011;3820;51.098;13.716;2023-03-23T00:16:18;5.07;;;2.80;;
7557;SDS011;3820;51.098;13.716;2023-03-23T00:18:45;4.32;;;2.92;;
7557;SDS011;3820;51.098;13.716;2023-03-23T00:21:10;3.90;;;2.78;;
7557;SDS011;3820;51.098;13.716;2023-03-23T00:23:36;3.77;;;2.53;;
7557;SDS011;3820;51.098;13.716;2023-03-23T00:26:03;3.70;;;2.50;;
7557;SDS011;3820;51.098;13.716;2023-03-23T00:28:29;3.92;;;2.40;;
7557;SDS011;3820;51.098;13.716;2023-03-23T00:31:00;3.30;;;2.50;;
7557;SDS011;3820;51.098;13.716;2023-03-23T00:33:28;3.53;;;2.85;;
7557;SDS011;3820;51.098;13.716;2023-03-23T00:35:55;6.75;;;2.30;;
7557;SDS011;3820;51.098;13.716;2023-03-23T00:38:22;3.90;;;2.70;;
7557;SDS011;3820;51.098;13.716;2023-03-23T00:40:49;4.53;;;2.92;;
7557;SDS011;3820;51.098;13.716;2023-03-23T00:43:18;5.32;;;2.80;;
7557;SDS011;3820;51.098;13.716;2023-03-23T00:45:44;3.03;;;2.63;;
7557;SDS011;3820;51.098;13.716;2023-03-23T00:48:18;4.05;;;2.67;;
7557;SDS011;3820;51.098;13.716;2023-03-23T00:50:48;3.10;;;2.15;;
7557;SDS011;3820;51.098;13.716;2023-03-23T00:53:14;2.70;;;2.25;;
7557;SDS011;3820;51.098;13.716;2023-03-23T00:55:41;3.38;;;2.28;;
7557;SDS011;3820;51.098;13.716;2023-03-23T00:58:07;3.83;;;2.42;;
7557;SDS011;3820;51.098;13.716;2023-03-23T01:00:34;3.25;;;1.75;;
7557;SDS011;3820;51.098;13.716;2023-03-23T01:02:59;3.97;;;2.53;;
7557;SDS011;3820;51.098;13.716;2023-03-23T01:05:25;2.50;;;1.92;;
7557;SDS011;3820;51.098;13.716;2023-03-23T01:07:57;3.03;;;2.00;;
7557;SDS011;3820;51.098;13.716;2023-03-23T01:10:24;5.78;;;2.08;;
7557;SDS011;3820;51.098;13.716;2023-03-23T01:12:53;3.30;;;2.13;;
7557;SDS011;3820;51.098;13.716;2023-03-23T01:15:19;6.90;;;2.80;;
7557;SDS011;3820;51.098;13.716;2023-03-23T01:17:46;4.90;;;1.90;;
7557;SDS011;3820;51.098;13.716;2023-03-23T01:20:13;3.22;;;2.30;;
7557;SDS011;3820;51.098;13.716;2023-03-23T01:22:40;3.08;;;1.58;;
7557;SDS011;3820;51.098;13.716;2023-03-23T01:25:07;3.00;;;1.48;;
7557;SDS011;3820;51.098;13.716;2023-03-23T01:27:33;2.03;;;1.50;;
7557;SDS011;3820;51.098;13.716;2023-03-23T01:29:59;4.88;;;1.40;;
7557;SDS011;3820;51.098;13.716;2023-03-23T01:32:25;2.40;;;1.60;;
7557;SDS011;3820;51.098;13.716;2023-03-23T01:34:50;3.65;;;1.40;;
7557;SDS011;3820;51.098;13.716;2023-03-23T01:37:16;3.13;;;1.17;;
7557;SDS011;3820;51.098;13.716;2023-03-23T01:39:41;2.10;;;1.40;;
7557;SDS011;3820;51.098;13.716;2023-03-23T01:42:10;1.42;;;1.30;;
7557;SDS011;3820;51.098;13.716;2023-03-23T01:47:01;2.38;;;1.73;;
7557;SDS011;3820;51.098;13.716;2023-03-23T01:49:31;2.65;;;1.85;;
7557;SDS011;3820;51.098;13.716;2023-03-23T01:52:01;2.00;;;1.65;;
7557;SDS011;3820;51.098;13.716;2023-03-23T01:54:29;2.58;;;1.90;;
7557;SDS011;3820;51.098;13.716;2023-03-23T01:56:56;2.17;;;1.70;;
7557;SDS011;3820;51.098;13.716;2023-03-23T01:59:24;1.83;;;1.40;;
7557;SDS011;3820;51.098;13.716;2023-03-23T02:01:51;3.53;;;2.00;;
7557;SDS011;3820;51.098;13.716;2023-03-23T02:04:17;4.93;;;1.83;;
7557;SDS011;3820;51.098;13.716;2023-03-23T02:06:43;2.90;;;1.70;;
7557;SDS011;3820;51.098;13.716;2023-03-23T02:09:10;3.75;;;1.48;;
7557;SDS011;3820;51.098;13.716;2023-03-23T02:11:36;2.28;;;1.55;;
7557;SDS011;3820;51.098;13.716;2023-03-23T02:14:02;1.75;;;1.63;;
7557;SDS011;3820;51.098;13.716;2023-03-23T02:27:18;2.17;;;1.40;;
7557;SDS011;3820;51.098;13.716;2023-03-23T02:29:58;3.42;;;1.70;;
7557;SDS011;3820;51.098;13.716;2023-03-23T02:38:16;2.72;;;1.50;;
7557;SDS011;3820;51.098;13.716;2023-03-23T02:40:47;2.50;;;1.67;;
7557;SDS011;3820;51.098;13.716;2023-03-23T02:43:16;2.00;;;1.48;;
7557;SDS011;3820;51.098;13.716;2023-03-23T02:49:33;4.75;;;1.63;;
7557;SDS011;3820;51.098;13.716;2023-03-23T02:52:07;1.58;;;1.48;;
7557;SDS011;3820;51.098;13.716;2023-03-23T02:54:37;3.42;;;1.70;;
7557;SDS011;3820;51.098;13.716;2023-03-23T02:57:03;2.03;;;1.50;;
7557;SDS011;3820;51.098;13.716;2023-03-23T02:59:30;1.75;;;1.55;;
7557;SDS011;3820;51.098;13.716;2023-03-23T03:02:05;1.92;;;1.70;;
7557;SDS011;3820;51.098;13.716;2023-03-23T03:04:33;2.08;;;1.42;;
7557;SDS011;3820;51.098;13.716;2023-03-23T03:10:09;2.00;;;1.50;;
7557;SDS011;3820;51.098;13.716;2023-03-23T03:13:21;2.58;;;1.70;;
7557;SDS011;3820;51.098;13.716;2023-03-23T03:15:35;2.47;;;1.50;;
7557;SDS011;3820;51.098;13.716;2023-03-23T03:18:08;2.97;;;1.35;;
7557;SDS011;3820;51.098;13.716;2023-03-23T03:20:54;2.65;;;1.50;;
7557;SDS011;3820;51.098;13.716;2023-03-23T03:23:22;2.45;;;1.40;;
7557;SDS011;3820;51.098;13.716;2023-03-23T03:25:49;2.33;;;1.40;;
7557;SDS011;3820;51.098;13.716;2023-03-23T03:28:16;2.25;;;1.60;;
7557;SDS011;3820;51.098;13.716;2023-03-23T03:30:51;2.13;;;1.60;;
7557;SDS011;3820;51.098;13.716;2023-03-23T03:33:19;1.58;;;1.33;;
7557;SDS011;3820;51.098;13.716;2023-03-23T03:35:46;2.30;;;1.33;;
7557;SDS011;3820;51.098;13.716;2023-03-23T03:38:12;1.42;;;1.10;;
7557;SDS011;3820;51.098;13.716;2023-03-23T03:40:37;2.90;;;1.13;;
7557;SDS011;3820;51.098;13.716;2023-03-23T03:43:04;1.30;;;1.20;;
7557;SDS011;3820;51.098;13.716;2023-03-23T03:45:29;1.50;;;1.33;;
7557;SDS011;3820;51.098;13.716;2023-03-23T03:47:55;4.13;;;1.50;;
7557;SDS011;3820;51.098;13.716;2023-03-23T03:50:21;4.20;;;1.75;;
7557;SDS011;3820;51.098;13.716;2023-03-23T03:52:46;3.75;;;1.60;;
7557;SDS011;3820;51.098;13.716;2023-03-23T03:55:12;2.25;;;1.23;;
7557;SDS011;3820;51.098;13.716;2023-03-23T03:57:37;4.35;;;1.60;;
7557;SDS011;3820;51.098;13.716;2023-03-23T04:00:04;2.17;;;1.30;;
7557;SDS011;3820;51.098;13.716;2023-03-23T04:02:43;1.30;;;1.10;;
7557;SDS011;3820;51.098;13.716;2023-03-23T04:05:12;2.90;;;1.40;;
7557;SDS011;3820;51.098;13.716;2023-03-23T04:07:39;3.45;;;1.40;;
7557;SDS011;3820;51.098;13.716;2023-03-23T04:10:08;1.83;;;1.20;;
7557;SDS011;3820;51.098;13.716;2023-03-23T04:12:35;2.53;;;1.40;;
7557;SDS011;3820;51.098;13.716;2023-03-23T04:15:00;3.55;;;1.30;;
7557;SDS011;3820;51.098;13.716;2023-03-23T04:17:26;3.13;;;1.50;;
7557;SDS011;3820;51.098;13.716;2023-03-23T04:19:52;2.20;;;1.60;;
7557;SDS011;3820;51.098;13.716;2023-03-23T04:22:22;1.95;;;1.42;;
7557;SDS011;3820;51.098;13.716;2023-03-23T04:24:59;1.95;;;1.40;;
7557;SDS011;3820;51.098;13.716;2023-03-23T04:27:26;2.38;;;1.40;;
7557;SDS011;3820;51.098;13.716;2023-03-23T04:29:54;4.00;;;1.60;;
7557;SDS011;3820;51.098;13.716;2023-03-23T04:32:21;3.03;;;1.45;;
7557;SDS011;3820;51.098;13.716;2023-03-23T04:34:47;4.43;;;1.70;;
7557;SDS011;3820;51.098;13.716;2023-03-23T04:37:13;1.50;;;1.40;;
7557;SDS011;3820;51.098;13.716;2023-03-23T04:39:39;1.90;;;1.70;;
7557;SDS011;3820;51.098;13.716;2023-03-23T04:42:05;2.22;;;1.70;;
7557;SDS011;3820;51.098;13.716;2023-03-23T04:44:30;3.15;;;1.80;;
7557;SDS011;3820;51.098;13.716;2023-03-23T04:47:00;4.22;;;1.73;;
7557;SDS011;3820;51.098;13.716;2023-03-23T04:49:26;4.07;;;1.75;;
7557;SDS011;3820;51.098;13.716;2023-03-23T04:51:52;3.97;;;2.03;;
7557;SDS011;3820;51.098;13.716;2023-03-23T04:54:17;3.60;;;2.05;;
7557;SDS011;3820;51.098;13.716;2023-03-23T04:56:43;4.68;;;2.10;;
7557;SDS011;3820;51.098;13.716;2023-03-23T04:59:09;2.67;;;2.17;;
7557;SDS011;3820;51.098;13.716;2023-03-23T05:01:34;4.70;;;2.33;;
7557;SDS011;3820;51.098;13.716;2023-03-23T05:04:02;2.65;;;2.05;;
7557;SDS011;3820;51.098;13.716;2023-03-23T05:06:28;3.67;;;2.50;;
7557;SDS011;3820;51.098;13.716;2023-03-23T05:08:53;3.90;;;2.30;;
7557;SDS011;3820;51.098;13.716;2023-03-23T05:11:18;5.70;;;2.58;;
7557;SDS011;3820;51.098;13.716;2023-03-23T05:13:44;5.45;;;2.75;;
7557;SDS011;3820;51.098;13.716;2023-03-23T05:16:09;5.82;;;2.20;;
7557;SDS011;3820;51.098;13.716;2023-03-23T05:18:35;2.92;;;2.30;;
7557;SDS011;3820;51.098;13.716;2023-03-23T05:21:01;5.75;;;2.15;;
7557;SDS011;3820;51.098;13.716;2023-03-23T05:23:28;4.90;;;2.30;;
7557;SDS011;3820;51.098;13.716;2023-03-23T05:25:56;4.82;;;2.28;;
7557;SDS011;3820;51.098;13.716;2023-03-23T05:28:26;6.00;;;2.38;;
7557;SDS011;3820;51.098;13.716;2023-03-23T05:30:52;3.33;;;2.28;;
7557;SDS011;3820;51.098;13.716;2023-03-23T05:33:19;6.80;;;2.47;;
7557;SDS011;3820;51.098;13.716;2023-03-23T05:35:45;4.45;;;2.42;;
7557;SDS011;3820;51.098;13.716;2023-03-23T05:38:12;5.47;;;2.40;;
7557;SDS011;3820;51.098;13.716;2023-03-23T05:40:39;3.78;;;2.30;;
7557;SDS011;3820;51.098;13.716;2023-03-23T05:43:07;3.15;;;2.13;;
7557;SDS011;3820;51.098;13.716;2023-03-23T05:45:33;5.47;;;2.55;;
7557;SDS011;3820;51.098;13.716;2023-03-23T05:47:59;5.20;;;2.50;;
7557;SDS011;3820;51.098;13.716;2023-03-23T05:50:24;5.47;;;2.58;;
7557;SDS011;3820;51.098;13.716;2023-03-23T05:52:50;3.97;;;2.47;;
7557;SDS011;3820;51.098;13.716;2023-03-23T05:55:16;3.42;;;2.40;;
7557;SDS011;3820;51.098;13.716;2023-03-23T05:57:41;3.22;;;2.47;;
7557;SDS011;3820;51.098;13.716;2023-03-23T06:00:08;4.13;;;2.70;;
7557;SDS011;3820;51.098;13.716;2023-03-23T06:02:39;5.63;;;2.55;;
7557;SDS011;3820;51.098;13.716;2023-03-23T06:05:09;5.00;;;2.80;;
7557;SDS011;3820;51.098;13.716;2023-03-23T06:07:35;4.53;;;2.80;;
7557;SDS011;3820;51.098;13.716;2023-03-23T06:10:03;7.45;;;2.65;;
7557;SDS011;3820;51.098;13.716;2023-03-23T06:12:29;5.30;;;2.53;;
7557;SDS011;3820;51.098;13.716;2023-03-23T06:14:56;4.82;;;2.78;;
7557;SDS011;3820;51.098;13.716;2023-03-23T06:17:22;6.68;;;3.40;;
7557;SDS011;3820;51.098;13.716;2023-03-23T06:19:47;2.95;;;2.30;;
7557;SDS011;3820;51.098;13.716;2023-03-23T06:22:16;5.07;;;2.78;;
7557;SDS011;3820;51.098;13.716;2023-03-23T06:24:42;5.22;;;2.58;;
7557;SDS011;3820;51.098;13.716;2023-03-23T06:27:08;3.92;;;2.85;;
7557;SDS011;3820;51.098;13.716;2023-03-23T06:29:34;3.88;;;2.80;;
7557;SDS011;3820;51.098;13.716;2023-03-23T06:32:00;3.17;;;2.72;;
7557;SDS011;3820;51.098;13.716;2023-03-23T06:34:27;4.20;;;2.45;;
7557;SDS011;3820;51.098;13.716;2023-03-23T06:36:53;4.63;;;2.50;;
7557;SDS011;3820;51.098;13.716;2023-03-23T06:39:19;5.07;;;2.00;;
7557;SDS011;3820;51.098;13.716;2023-03-23T06:41:44;4.25;;;2.20;;
7557;SDS011;3820;51.098;13.716;2023-03-23T06:44:10;4.20;;;1.73;;
7557;SDS011;3820;51.098;13.716;2023-03-23T06:46:38;2.17;;;1.60;;
7557;SDS011;3820;51.098;13.716;2023-03-23T06:49:05;2.08;;;1.55;;
7557;SDS011;3820;51.098;13.716;2023-03-23T06:51:31;2.97;;;1.65;;
7557;SDS011;3820;51.098;13.716;2023-03-23T06:53:56;3.90;;;1.70;;
7557;SDS011;3820;51.098;13.716;2023-03-23T06:56:23;2.78;;;1.70;;
7557;SDS011;3820;51.098;13.716;2023-03-23T06:58:48;3.78;;;1.73;;
7557;SDS011;3820;51.098;13.716;2023-03-23T07:01:14;3.83;;;2.17;;
7557;SDS011;3820;51.098;13.716;2023-03-23T07:03:40;2.85;;;1.77;;
7557;SDS011;3820;51.098;13.716;2023-03-23T07:06:06;2.38;;;1.60;;
7557;SDS011;3820;51.098;13.716;2023-03-23T07:08:33;4.60;;;1.67;;
7557;SDS011;3820;51.098;13.716;2023-03-23T07:10:59;2.97;;;1.67;;
7557;SDS011;3820;51.098;13.716;2023-03-23T07:13:24;5.68;;;1.92;;
7557;SDS011;3820;51.098;13.716;2023-03-23T07:15:50;4.15;;;1.65;;
7557;SDS011;3820;51.098;13.716;2023-03-23T07:18:16;4.35;;;1.60;;
7557;SDS011;3820;51.098;13.716;2023-03-23T07:20:41;1.75;;;1.60;;
7557;SDS011;3820;51.098;13.716;2023-03-23T07:23:07;2.28;;;1.75;;
7557;SDS011;3820;51.098;13.716;2023-03-23T07:25:33;4.72;;;1.52;;
7557;SDS011;3820;51.098;13.716;2023-03-23T07:28:01;4.43;;;1.98;;
7557;SDS011;3820;51.098;13.716;2023-03-23T07:30:27;3.25;;;1.90;;
7557;SDS011;3820;51.098;13.716;2023-03-23T07:32:54;2.35;;;1.70;;
7557;SDS011;3820;51.098;13.716;2023-03-23T07:35:20;6.00;;;1.80;;
7557;SDS011;3820;51.098;13.716;2023-03-23T07:37:46;2.45;;;1.60;;
7557;SDS011;3820;51.098;13.716;2023-03-23T07:40:14;3.08;;;1.55;;
7557;SDS011;3820;51.098;13.716;2023-03-23T07:42:41;5.47;;;1.70;;
7557;SDS011;3820;51.098;13.716;2023-03-23T07:45:07;3.17;;;1.50;;
7557;SDS011;3820;51.098;13.716;2023-03-23T07:47:34;3.78;;;1.63;;
7557;SDS011;3820;51.098;13.716;2023-03-23T07:49:59;2.22;;;1.50;;
7557;SDS011;3820;51.098;13.716;2023-03-23T07:52:25;4.22;;;1.70;;
7557;SDS011;3820;51.098;13.716;2023-03-23T07:54:50;1.80;;;1.55;;
7557;SDS011;3820;51.098;13.716;2023-03-23T07:57:16;2.53;;;1.70;;
7557;SDS011;3820;51.098;13.716;2023-03-23T07:59:41;4.30;;;2.30;;
7557;SDS011;3820;51.098;13.716;2023-03-23T08:02:07;4.75;;;1.70;;
7557;SDS011;3820;51.098;13.716;2023-03-23T08:04:34;3.72;;;1.92;;
7557;SDS011;3820;51.098;13.716;2023-03-23T08:07:02;2.80;;;1.58;;
7557;SDS011;3820;51.098;13.716;2023-03-23T08:09:29;3.80;;;1.70;;
7557;SDS011;3820;51.098;13.716;2023-03-23T08:11:55;5.80;;;1.65;;
7557;SDS011;3820;51.098;13.716;2023-03-23T08:14:21;3.13;;;1.70;;
7557;SDS011;3820;51.098;13.716;2023-03-23T08:16:47;2.15;;;1.70;;
7557;SDS011;3820;51.098;13.716;2023-03-23T08:19:13;2.58;;;1.70;;
7557;SDS011;3820;51.098;13.716;2023-03-23T08:21:39;1.83;;;1.67;;
7557;SDS011;3820;51.098;13.716;2023-03-23T08:24:04;2.95;;;1.67;;
7557;SDS011;3820;51.098;13.716;2023-03-23T08:26:31;2.05;;;1.50;;
7557;SDS011;3820;51.098;13.716;2023-03-23T08:28:56;2.72;;;1.45;;
7557;SDS011;3820;51.098;13.716;2023-03-23T08:31:22;2.65;;;1.63;;
7557;SDS011;3820;51.098;13.716;2023-03-23T08:33:48;3.05;;;1.70;;
7557;SDS011;3820;51.098;13.716;2023-03-23T08:36:14;2.13;;;1.50;;
7557;SDS011;3820;51.098;13.716;2023-03-23T08:38:40;2.25;;;1.60;;
7557;SDS011;3820;51.098;13.716;2023-03-23T08:41:06;4.35;;;1.48;;
7557;SDS011;3820;51.098;13.716;2023-03-23T08:43:33;4.10;;;1.55;;
7557;SDS011;3820;51.098;13.716;2023-03-23T08:45:59;2.28;;;1.70;;
7557;SDS011;3820;51.098;13.716;2023-03-23T08:48:24;1.88;;;1.55;;
7557;SDS011;3820;51.098;13.716;2023-03-23T08:50:50;2.03;;;1.52;;
7557;SDS011;3820;51.098;13.716;2023-03-23T08:53:17;3.08;;;1.80;;
7557;SDS011;3820;51.098;13.716;2023-03-23T08:55:43;2.67;;;1.70;;
7557;SDS011;3820;51.098;13.716;2023-03-23T08:58:09;4.00;;;2.00;;
7557;SDS011;3820;51.098;13.716;2023-03-23T09:00:35;4.07;;;1.70;;
7557;SDS011;3820;51.098;13.716;2023-03-23T09:03:00;2.70;;;1.35;;
7557;SDS011;3820;51.098;13.716;2023-03-23T09:05:27;2.25;;;1.83;;
7557;SDS011;3820;51.098;13.716;2023-03-23T09:07:55;1.70;;;1.50;;
7557;SDS011;3820;51.098;13.716;2023-03-23T09:10:24;1.88;;;1.67;;
7557;SDS011;3820;51.098;13.716;2023-03-23T09:12:53;3.80;;;2.05;;
7557;SDS011;3820;51.098;13.716;2023-03-23T09:15:20;3.00;;;1.70;;
7557;SDS011;3820;51.098;13.716;2023-03-23T09:17:47;2.03;;;1.65;;
7557;SDS011;3820;51.098;13.716;2023-03-23T09:20:16;3.20;;;1.70;;
7557;SDS011;3820;51.098;13.716;2023-03-23T09:22:45;3.50;;;2.00;;
7557;SDS011;3820;51.098;13.716;2023-03-23T09:25:14;2.38;;;2.08;;
7557;SDS011;3820;51.098;13.716;2023-03-23T09:27:42;3.35;;;2.10;;
7557;SDS011;3820;51.098;13.716;2023-03-23T09:30:09;2.10;;;1.90;;
7557;SDS011;3820;51.098;13.716;2023-03-23T09:32:37;4.95;;;2.10;;
7557;SDS011;3820;51.098;13.716;2023-03-23T09:35:04;2.33;;;1.85;;
7557;SDS011;3820;51.098;13.716;2023-03-23T09:37:37;3.58;;;2.20;;
7557;SDS011;3820;51.098;13.716;2023-03-23T09:40:06;3.63;;;2.60;;
7557;SDS011;3820;51.098;13.716;2023-03-23T09:42:38;3.25;;;2.28;;
7557;SDS011;3820;51.098;13.716;2023-03-23T09:45:12;3.40;;;2.45;;
7557;SDS011;3820;51.098;13.716;2023-03-23T09:47:59;3.17;;;2.08;;
7557;SDS011;3820;51.098;13.716;2023-03-23T09:50:46;6.00;;;2.30;;
7557;SDS011;3820;51.098;13.716;2023-03-23T09:53:16;2.67;;;2.08;;
7557;SDS011;3820;51.098;13.716;2023-03-23T09:55:44;6.35;;;2.40;;
7557;SDS011;3820;51.098;13.716;2023-03-23T09:58:21;3.47;;;2.20;;
7557;SDS011;3820;51.098;13.716;2023-03-23T10:01:06;5.10;;;2.55;;
7557;SDS011;3820;51.098;13.716;2023-03-23T10:03:40;5.30;;;2.55;;
7557;SDS011;3820;51.098;13.716;2023-03-23T10:06:15;4.38;;;2.40;;
7557;SDS011;3820;51.098;13.716;2023-03-23T10:08:47;5.30;;;2.55;;
7557;SDS011;3820;51.098;13.716;2023-03-23T10:11:19;2.92;;;2.20;;
7557;SDS011;3820;51.098;13.716;2023-03-23T10:16:27;2.65;;;1.92;;
7557;SDS011;3820;51.098;13.716;2023-03-23T10:21:40;2.45;;;1.80;;
7557;SDS011;3820;51.098;13.716;2023-03-23T10:24:08;2.70;;;1.80;;
7557;SDS011;3820;51.098;13.716;2023-03-23T10:29:18;3.47;;;2.28;;
7557;SDS011;3820;51.098;13.716;2023-03-23T10:32:21;2.55;;;1.90;;
7557;SDS011;3820;51.098;13.716;2023-03-23T10:35:00;2.25;;;1.75;;
7557;SDS011;3820;51.098;13.716;2023-03-23T10:37:29;4.70;;;1.90;;
7557;SDS011;3820;51.098;13.716;2023-03-23T10:39:58;1.95;;;1.70;;
7557;SDS011;3820;51.098;13.716;2023-03-23T10:42:35;2.33;;;1.80;;
7557;SDS011;3820;51.098;13.716;2023-03-23T10:47:57;2.28;;;1.88;;
7557;SDS011;3820;51.098;13.716;2023-03-23T10:50:27;2.45;;;1.80;;
7557;SDS011;3820;51.098;13.716;2023-03-23T10:52:56;3.20;;;1.67;;
7557;SDS011;3820;51.098;13.716;2023-03-23T10:55:23;1.60;;;1.50;;
7557;SDS011;3820;51.098;13.716;2023-03-23T10:58:11;3.40;;;1.50;;
7557;SDS011;3820;51.098;13.716;2023-03-23T11:00:42;3.05;;;1.83;;
7557;SDS011;3820;51.098;13.716;2023-03-23T11:05:41;2.28;;;1.67;;
7557;SDS011;3820;51.098;13.716;2023-03-23T11:08:18;2.75;;;1.48;;
7557;SDS011;3820;51.098;13.716;2023-03-23T11:13:17;2.88;;;1.60;;
7557;SDS011;3820;51.098;13.716;2023-03-23T11:15:43;4.00;;;1.65;;
7557;SDS011;3820;51.098;13.716;2023-03-23T11:18:13;3.03;;;1.40;;
7557;SDS011;3820;51.098;13.716;2023-03-23T11:20:45;2.67;;;1.77;;
7557;SDS011;3820;51.098;13.716;2023-03-23T11:23:21;2.33;;;1.50;;
7557;SDS011;3820;51.098;13.716;2023-03-23T11:28:21;2.80;;;1.58;;
7557;SDS011;3820;51.098;13.716;2023-03-23T11:30:48;3.13;;;1.80;;
7557;SDS011;3820;51.098;13.716;2023-03-23T11:33:13;3.67;;;1.70;;
7557;SDS011;3820;51.098;13.716;2023-03-23T11:35:43;2.17;;;1.50;;
7557;SDS011;3820;51.098;13.716;2023-03-23T11:38:11;3.35;;;1.85;;
7557;SDS011;3820;51.098;13.716;2023-03-23T11:40:50;1.75;;;1.65;;
7557;SDS011;3820;51.098;13.716;2023-03-23T11:43:24;4.72;;;1.60;;
7557;SDS011;3820;51.098;13.716;2023-03-23T11:51:38;3.90;;;1.80;;
7557;SDS011;3820;51.098;13.716;2023-03-23T11:54:13;2.08;;;1.65;;
7557;SDS011;3820;51.098;13.716;2023-03-23T11:56:43;2.13;;;1.88;;
7557;SDS011;3820;51.098;13.716;2023-03-23T11:59:18;4.97;;;2.10;;
7557;SDS011;3820;51.098;13.716;2023-03-23T12:04:40;2.30;;;2.00;;
7557;SDS011;3820;51.098;13.716;2023-03-23T12:07:28;2.55;;;1.70;;
7557;SDS011;3820;51.098;13.716;2023-03-23T12:23:32;1.92;;;1.60;;
7557;SDS011;3820;51.098;13.716;2023-03-23T12:26:17;2.25;;;1.50;;
7557;SDS011;3820;51.098;13.716;2023-03-23T12:50:20;1.98;;;1.80;;
7557;SDS011;3820;51.098;13.716;2023-03-23T12:55:23;3.20;;;1.60;;
7557;SDS011;3820;51.098;13.716;2023-03-23T12:58:11;1.73;;;1.60;;
7557;SDS011;3820;51.098;13.716;2023-03-23T13:05:47;2.50;;;1.60;;
7557;SDS011;3820;51.098;13.716;2023-03-23T13:08:26;4.38;;;1.60;;
7557;SDS011;3820;51.098;13.716;2023-03-23T13:10:58;4.00;;;1.60;;
7557;SDS011;3820;51.098;13.716;2023-03-23T13:13:45;3.65;;;1.77;;
7557;SDS011;3820;51.098;13.716;2023-03-23T13:21:58;2.35;;;1.90;;
7557;SDS011;3820;51.098;13.716;2023-03-23T13:24:28;1.98;;;1.60;;
7557;SDS011;3820;51.098;13.716;2023-03-23T13:26:55;2.20;;;1.80;;
7557;SDS011;3820;51.098;13.716;2023-03-23T13:29:23;2.40;;;1.88;;
7557;SDS011;3820;51.098;13.716;2023-03-23T13:31:50;2.65;;;1.92;;
7557;SDS011;3820;51.098;13.716;2023-03-23T13:36:56;2.78;;;1.98;;
7557;SDS011;3820;51.098;13.716;2023-03-23T13:39:25;2.22;;;1.73;;
7557;SDS011;3820;51.098;13.716;2023-03-23T13:42:03;3.42;;;1.83;;
7557;SDS011;3820;51.098;13.716;2023-03-23T13:47:24;1.92;;;1.48;;
7557;SDS011;3820;51.098;13.716;2023-03-23T13:50:02;6.05;;;1.70;;
7557;SDS011;3820;51.098;13.716;2023-03-23T13:57:54;2.33;;;1.20;;
7557;SDS011;3820;51.098;13.716;2023-03-23T14:13:46;3.65;;;1.70;;
7557;SDS011;3820;51.098;13.716;2023-03-23T14:16:23;1.70;;;1.48;;
7557;SDS011;3820;51.098;13.716;2023-03-23T14:19:02;2.13;;;1.40;;
7557;SDS011;3820;51.098;13.716;2023-03-23T14:21:38;1.90;;;1.60;;
7557;SDS011;3820;51.098;13.716;2023-03-23T14:24:10;1.98;;;1.52;;
7557;SDS011;3820;51.098;13.716;2023-03-23T14:26:41;1.75;;;1.50;;
7557;SDS011;3820;51.098;13.716;2023-03-23T14:29:09;2.53;;;1.70;;
7557;SDS011;3820;51.098;13.716;2023-03-23T14:31:37;2.65;;;1.40;;
7557;SDS011;3820;51.098;13.716;2023-03-23T14:34:04;2.15;;;1.38;;
7557;SDS011;3820;51.098;13.716;2023-03-23T14:36:38;1.85;;;1.60;;
7557;SDS011;3820;51.098;13.716;2023-03-23T14:39:19;2.20;;;1.40;;
7557;SDS011;3820;51.098;13.716;2023-03-23T14:41:46;3.60;;;1.48;;
7557;SDS011;3820;51.098;13.716;2023-03-23T14:44:14;1.55;;;1.30;;
7557;SDS011;3820;51.098;13.716;2023-03-23T14:46:46;1.95;;;1.42;;
7557;SDS011;3820;51.098;13.716;2023-03-23T14:49:19;1.50;;;1.40;;
7557;SDS011;3820;51.098;13.716;2023-03-23T14:51:47;1.73;;;1.50;;
7557;SDS011;3820;51.098;13.716;2023-03-23T14:54:14;3.20;;;1.45;;
7557;SDS011;3820;51.098;13.716;2023-03-23T14:56:39;1.90;;;1.40;;
7557;SDS011;3820;51.098;13.716;2023-03-23T14:59:05;1.35;;;1.20;;
7557;SDS011;3820;51.098;13.716;2023-03-23T15:01:33;2.70;;;1.20;;
7557;SDS011;3820;51.098;13.716;2023-03-23T15:06:32;1.67;;;1.30;;
7557;SDS011;3820;51.098;13.716;2023-03-23T15:08:59;3.30;;;1.70;;
7557;SDS011;3820;51.098;13.716;2023-03-23T15:11:27;2.72;;;1.63;;
7557;SDS011;3820;51.098;13.716;2023-03-23T15:13:55;2.35;;;1.63;;
7557;SDS011;3820;51.098;13.716;2023-03-23T15:16:26;2.35;;;1.92;;
7557;SDS011;3820;51.098;13.716;2023-03-23T15:18:58;3.55;;;1.73;;
7557;SDS011;3820;51.098;13.716;2023-03-23T15:21:29;1.70;;;1.58;;
7557;SDS011;3820;51.098;13.716;2023-03-23T15:23:56;2.15;;;1.50;;
7557;SDS011;3820;51.098;13.716;2023-03-23T15:29:00;3.75;;;2.55;;
7557;SDS011;3820;51.098;13.716;2023-03-23T15:31:30;5.03;;;2.05;;
7557;SDS011;3820;51.098;13.716;2023-03-23T15:33:57;2.55;;;1.70;;
7557;SDS011;3820;51.098;13.716;2023-03-23T15:36:25;1.58;;;1.48;;
7557;SDS011;3820;51.098;13.716;2023-03-23T15:38:57;2.00;;;1.60;;
7557;SDS011;3820;51.098;13.716;2023-03-23T15:41:27;2.33;;;1.63;;
7557;SDS011;3820;51.098;13.716;2023-03-23T15:44:09;2.45;;;1.70;;
7557;SDS011;3820;51.098;13.716;2023-03-23T15:46:51;5.18;;;1.75;;
7557;SDS011;3820;51.098;13.716;2023-03-23T15:49:18;3.97;;;1.85;;
7557;SDS011;3820;51.098;13.716;2023-03-23T15:51:44;3.67;;;1.70;;
7557;SDS011;3820;51.098;13.716;2023-03-23T15:54:12;2.47;;;1.50;;
7557;SDS011;3820;51.098;13.716;2023-03-23T15:56:38;2.80;;;1.50;;
7557;SDS011;3820;51.098;13.716;2023-03-23T15:59:04;1.50;;;1.40;;
7557;SDS011;3820;51.098;13.716;2023-03-23T16:01:31;2.30;;;1.50;;
7557;SDS011;3820;51.098;13.716;2023-03-23T16:04:04;1.98;;;1.60;;
7557;SDS011;3820;51.098;13.716;2023-03-23T16:06:33;3.15;;;1.92;;
7557;SDS011;3820;51.098;13.716;2023-03-23T16:09:00;1.40;;;1.30;;
7557;SDS011;3820;51.098;13.716;2023-03-23T16:11:29;1.80;;;1.65;;
7557;SDS011;3820;51.098;13.716;2023-03-23T16:13:57;3.42;;;1.83;;
7557;SDS011;3820;51.098;13.716;2023-03-23T16:16:24;2.60;;;1.92;;
7557;SDS011;3820;51.098;13.716;2023-03-23T16:18:53;2.58;;;1.40;;
7557;SDS011;3820;51.098;13.716;2023-03-23T16:21:19;1.77;;;1.10;;
7557;SDS011;3820;51.098;13.716;2023-03-23T16:23:46;3.90;;;1.65;;
7557;SDS011;3820;51.098;13.716;2023-03-23T16:26:13;3.70;;;1.95;;
7557;SDS011;3820;51.098;13.716;2023-03-23T16:28:40;2.58;;;1.35;;
7557;SDS011;3820;51.098;13.716;2023-03-23T16:31:07;1.75;;;1.20;;
7557;SDS011;3820;51.098;13.716;2023-03-23T16:33:34;1.98;;;1.77;;
7557;SDS011;3820;51.098;13.716;2023-03-23T16:36:01;1.67;;;1.10;;
7557;SDS011;3820;51.098;13.716;2023-03-23T16:38:28;2.78;;;1.35;;
7557;SDS011;3820;51.098;13.716;2023-03-23T16:40:54;2.05;;;1.65;;
7557;SDS011;3820;51.098;13.716;2023-03-23T16:43:21;1.40;;;1.30;;
7557;SDS011;3820;51.098;13.716;2023-03-23T16:45:47;4.00;;;2.92;;
7557;SDS011;3820;51.098;13.716;2023-03-23T16:48:15;1.45;;;1.23;;
7557;SDS011;3820;51.098;13.716;2023-03-23T16:50:42;3.92;;;1.58;;
7557;SDS011;3820;51.098;13.716;2023-03-23T16:53:09;2.00;;;1.52;;
7557;SDS011;3820;51.098;13.716;2023-03-23T16:55:36;1.98;;;1.30;;
7557;SDS011;3820;51.098;13.716;2023-03-23T16:58:04;2.50;;;1.27;;
7557;SDS011;3820;51.098;13.716;2023-03-23T17:00:42;1.33;;;1.20;;
7557;SDS011;3820;51.098;13.716;2023-03-23T17:03:10;1.55;;;1.15;;
7557;SDS011;3820;51.098;13.716;2023-03-23T17:05:38;2.47;;;1.35;;
7557;SDS011;3820;51.098;13.716;2023-03-23T17:08:06;2.40;;;1.50;;
7557;SDS011;3820;51.098;13.716;2023-03-23T17:10:33;2.58;;;1.65;;
7557;SDS011;3820;51.098;13.716;2023-03-23T17:13:00;4.07;;;1.40;;
7557;SDS011;3820;51.098;13.716;2023-03-23T17:15:27;3.03;;;2.00;;
7557;SDS011;3820;51.098;13.716;2023-03-23T17:17:53;2.17;;;1.70;;
7557;SDS011;3820;51.098;13.716;2023-03-23T17:20:20;1.98;;;1.50;;